Time;durP1;ratioP1;P1;durP2;ratioP2;P2;SDS_P1;SDS_P2;PMS_P1;PMS_P2;Temp;Humidity;BMP_temperature;BMP_pressure;BME280_temperature;BME280_humidity;BME280_pressure;Samples;Min_cycle;Max_cycle;Signal;HPM_P1;HPM_P2
2023/03/07 00:00:08;;;;;;;3.35;2.05;;;7.20;99.90;;;;;;5071305;28;20033;-82
2023/03/07 00:02:33;;;;;;;2.92;1.92;;;7.20;99.70;;;;;;5076994;28;20031;-81
2023/03/07 00:04:59;;;;;;;4.85;2.08;;;7.20;99.60;;;;;;5081820;28;20025;-81
2023/03/07 00:07:24;;;;;;;2.50;1.80;;;7.10;99.90;;;;;;5072898;28;20020;-82
2023/03/07 00:09:50;;;;;;;3.45;2.00;;;7.20;99.90;;;;;;5077652;28;20044;-83
2023/03/07 00:12:16;;;;;;;2.65;1.88;;;7.20;99.90;;;;;;5060241;28;20381;-82
2023/03/07 00:14:41;;;;;;;3.05;1.73;;;7.20;99.50;;;;;;5064227;28;20496;-82
2023/03/07 00:17:07;;;;;;;2.80;2.05;;;7.10;99.90;;;;;;5078763;28;20032;-83
2023/03/07 00:19:33;;;;;;;3.25;1.75;;;7.10;99.90;;;;;;5064382;28;20036;-83
2023/03/07 00:21:58;;;;;;;3.08;1.73;;;7.10;99.90;;;;;;5063954;28;20024;-83
2023/03/07 00:24:24;;;;;;;3.33;1.92;;;7.20;99.90;;;;;;5077954;28;20043;-82
2023/03/07 00:26:49;;;;;;;3.33;2.08;;;7.20;99.90;;;;;;5064156;28;20024;-82
2023/03/07 00:29:15;;;;;;;3.30;1.55;;;7.20;99.90;;;;;;5074232;28;20162;-82
2023/03/07 00:31:41;;;;;;;2.30;1.30;;;7.10;99.90;;;;;;5060754;28;20116;-83
2023/03/07 00:34:06;;;;;;;2.80;1.63;;;7.20;99.90;;;;;;5065408;28;20033;-82
2023/03/07 00:36:32;;;;;;;2.78;1.90;;;7.30;99.90;;;;;;5077961;28;20024;-82
2023/03/07 00:38:58;;;;;;;2.38;1.48;;;7.30;99.50;;;;;;5056935;28;20040;-86
2023/03/07 00:41:26;;;;;;;2.80;1.55;;;7.20;99.90;;;;;;5068022;28;20419;-85
2023/03/07 00:43:53;;;;;;;3.38;2.13;;;7.20;99.90;;;;;;5073502;28;20647;-85
2023/03/07 00:46:20;;;;;;;3.10;1.70;;;7.20;99.60;;;;;;5077920;28;20020;-87
2023/03/07 00:48:46;;;;;;;2.75;1.73;;;7.20;99.90;;;;;;5058673;28;20062;-86
2023/03/07 00:51:15;;;;;;;4.93;2.30;;;7.10;99.60;;;;;;5084617;28;20451;-86
2023/03/07 00:53:41;;;;;;;2.78;1.80;;;7.10;99.80;;;;;;5078618;28;20032;-86
2023/03/07 00:56:15;;;;;;;2.80;1.90;;;7.00;99.90;;;;;;5063248;28;20028;-86
2023/03/07 00:58:41;;;;;;;2.75;1.70;;;7.10;99.90;;;;;;5060217;28;20025;-85
2023/03/07 01:01:08;;;;;;;2.80;1.70;;;7.10;99.90;;;;;;5081096;28;20531;-86
2023/03/07 01:03:34;;;;;;;3.08;1.90;;;7.10;99.90;;;;;;5088828;28;20066;-86
2023/03/07 01:06:14;;;;;;;3.72;1.90;;;7.10;99.90;;;;;;5095055;28;20020;-85
2023/03/07 01:08:40;;;;;;;2.70;1.80;;;7.10;99.90;;;;;;5098520;28;20107;-86
2023/03/07 01:11:06;;;;;;;3.38;1.98;;;7.00;99.90;;;;;;5061166;28;20090;-86
2023/03/07 01:13:34;;;;;;;2.85;1.83;;;7.00;99.90;;;;;;5077909;28;20172;-86
2023/03/07 01:16:33;;;;;;;4.20;2.13;;;7.00;99.90;;;;;;5060032;28;20067;-85
2023/03/07 01:19:02;;;;;;;3.08;1.88;;;7.00;99.90;;;;;;5033443;28;20041;-84
2023/03/07 01:21:31;;;;;;;2.53;1.88;;;6.90;99.90;;;;;;5059373;28;20021;-82
2023/03/07 01:23:57;;;;;;;2.60;1.92;;;6.90;99.90;;;;;;5076041;28;20047;-82
2023/03/07 01:26:28;;;;;;;3.53;1.92;;;7.00;99.90;;;;;;5077416;28;20100;-82
2023/03/07 01:28:56;;;;;;;2.97;1.75;;;6.90;99.90;;;;;;5081073;28;20056;-82
2023/03/07 01:31:23;;;;;;;2.88;1.83;;;6.90;99.90;;;;;;5077592;28;20103;-84
2023/03/07 01:33:50;;;;;;;2.60;1.90;;;6.90;99.90;;;;;;5076678;28;20028;-84
2023/03/07 01:36:19;;;;;;;2.80;1.70;;;6.90;99.90;;;;;;5074007;28;20035;-84
2023/03/07 01:38:46;;;;;;;3.17;2.00;;;6.90;99.90;;;;;;5058394;28;20021;-86
2023/03/07 01:41:12;;;;;;;2.28;1.73;;;6.90;99.90;;;;;;5058364;28;20020;-86
2023/03/07 01:43:38;;;;;;;2.70;2.03;;;6.90;99.90;;;;;;5066119;28;20032;-86
2023/03/07 01:46:16;;;;;;;2.60;1.92;;;6.90;99.90;;;;;;5063146;28;20028;-85
2023/03/07 01:48:49;;;;;;;2.38;1.63;;;6.90;99.90;;;;;;5060824;28;20036;-86
2023/03/07 01:51:16;;;;;;;3.08;1.90;;;6.80;99.90;;;;;;5076375;28;20107;-85
2023/03/07 01:53:42;;;;;;;2.55;1.60;;;6.90;99.90;;;;;;5083078;28;20040;-86
2023/03/07 01:56:08;;;;;;;3.13;1.65;;;6.90;99.90;;;;;;5058609;28;20100;-86
2023/03/07 01:58:36;;;;;;;2.85;2.08;;;6.90;99.90;;;;;;5082482;28;20020;-86
2023/03/07 02:01:07;;;;;;;2.28;1.60;;;6.90;99.90;;;;;;5060545;28;20036;-86
2023/03/07 02:04:01;;;;;;;2.60;1.88;;;6.90;99.90;;;;;;5074351;28;20473;-87
2023/03/07 02:06:29;;;;;;;2.60;1.52;;;6.80;99.90;;;;;;5056264;28;20524;-87
2023/03/07 02:08:57;;;;;;;1.80;1.25;;;6.90;99.90;;;;;;5059664;28;20032;-87
2023/03/07 02:11:23;;;;;;;2.50;1.67;;;6.90;99.90;;;;;;5068522;28;20025;-83
2023/03/07 02:13:49;;;;;;;3.22;1.70;;;6.90;99.90;;;;;;5079159;28;20186;-83
2023/03/07 02:16:15;;;;;;;2.42;1.60;;;6.80;99.90;;;;;;5067131;28;20054;-84
2023/03/07 02:18:48;;;;;;;2.45;1.20;;;6.90;99.90;;;;;;5062452;28;20104;-84
2023/03/07 02:21:16;;;;;;;2.28;1.55;;;6.90;99.90;;;;;;5047743;28;20024;-85
2023/03/07 02:23:48;;;;;;;2.63;1.60;;;6.90;99.90;;;;;;5067867;28;20100;-85
2023/03/07 02:26:31;;;;;;;2.30;1.67;;;6.90;99.90;;;;;;5076496;28;20481;-85
2023/03/07 02:28:58;;;;;;;1.93;1.43;;;7.00;99.90;;;;;;5047391;28;20039;-84
2023/03/07 02:31:24;;;;;;;1.80;1.27;;;7.10;99.90;;;;;;5076282;28;20032;-84
2023/03/07 02:33:50;;;;;;;3.08;1.55;;;7.00;99.90;;;;;;5054654;28;20100;-84
2023/03/07 02:36:27;;;;;;;1.92;1.25;;;7.00;99.90;;;;;;5063371;28;20512;-85
2023/03/07 02:38:55;;;;;;;2.10;1.33;;;7.10;99.90;;;;;;5065348;28;20435;-86
2023/03/07 02:41:26;;;;;;;3.33;1.83;;;7.10;99.90;;;;;;5062186;28;20025;-84
2023/03/07 02:43:52;;;;;;;3.08;1.77;;;7.00;99.90;;;;;;5075581;28;20523;-85
2023/03/07 02:46:19;;;;;;;2.67;2.00;;;7.00;99.90;;;;;;5062145;28;20028;-83
2023/03/07 02:48:45;;;;;;;2.38;1.95;;;7.00;99.90;;;;;;5077021;28;20488;-85
2023/03/07 02:51:11;;;;;;;2.60;1.73;;;6.90;99.90;;;;;;5076813;28;20025;-84
2023/03/07 02:53:38;;;;;;;2.75;1.77;;;7.00;99.90;;;;;;5058556;28;20032;-84
2023/03/07 02:56:04;;;;;;;3.20;2.20;;;7.00;99.90;;;;;;5071923;28;20063;-82
2023/03/07 02:58:32;;;;;;;2.25;1.58;;;7.00;99.90;;;;;;5054870;28;20048;-84
2023/03/07 03:01:24;;;;;;;3.30;1.90;;;7.00;99.90;;;;;;5058734;28;20552;-85
2023/03/07 03:03:52;;;;;;;2.92;1.65;;;7.00;99.90;;;;;;5065486;28;20084;-85
2023/03/07 03:06:17;;;;;;;3.50;1.80;;;7.00;99.90;;;;;;5077772;28;20036;-82
2023/03/07 03:08:43;;;;;;;2.63;1.70;;;7.00;99.90;;;;;;5049705;28;20024;-84
2023/03/07 03:11:09;;;;;;;3.60;2.10;;;7.00;99.90;;;;;;5066618;28;20514;-84
2023/03/07 03:13:34;;;;;;;3.40;2.20;;;7.00;99.90;;;;;;5075188;28;20499;-86
2023/03/07 03:16:00;;;;;;;4.80;2.30;;;7.00;99.90;;;;;;5075913;28;20391;-86
2023/03/07 03:18:29;;;;;;;4.07;2.40;;;7.00;99.90;;;;;;5082925;28;20092;-85
2023/03/07 03:20:56;;;;;;;3.17;1.77;;;7.00;99.90;;;;;;5083502;28;20024;-85
2023/03/07 03:23:22;;;;;;;2.65;1.95;;;7.00;99.90;;;;;;5062297;28;20055;-85
2023/03/07 03:26:04;;;;;;;3.40;1.88;;;7.10;99.90;;;;;;5079695;28;20078;-86
2023/03/07 03:28:30;;;;;;;2.47;1.67;;;7.10;99.90;;;;;;5062379;28;20040;-87
2023/03/07 03:31:00;;;;;;;2.75;1.50;;;7.10;99.90;;;;;;5062647;28;20052;-87
2023/03/07 03:33:28;;;;;;;2.30;1.75;;;7.10;99.90;;;;;;5061892;28;20028;-87
2023/03/07 03:35:55;;;;;;;2.80;1.80;;;7.10;99.90;;;;;;5078454;28;20029;-85
2023/03/07 03:38:20;;;;;;;3.33;1.95;;;7.10;99.90;;;;;;5075743;28;20401;-85
2023/03/07 03:40:46;;;;;;;3.10;2.10;;;7.00;99.90;;;;;;5061742;28;20013;-85
2023/03/07 03:43:12;;;;;;;3.10;2.03;;;7.00;99.90;;;;;;5077748;28;20063;-85
2023/03/07 03:45:39;;;;;;;3.95;2.50;;;7.00;99.90;;;;;;5078925;28;20036;-85
2023/03/07 03:48:05;;;;;;;2.20;1.52;;;7.00;99.90;;;;;;5058558;28;20032;-85
2023/03/07 03:50:31;;;;;;;3.17;1.92;;;7.00;99.90;;;;;;5081648;28;20402;-85
2023/03/07 03:52:56;;;;;;;4.57;1.83;;;7.00;99.90;;;;;;5083729;28;20036;-85
2023/03/07 03:55:22;;;;;;;3.13;1.75;;;7.00;99.90;;;;;;5098433;28;20024;-85
2023/03/07 03:57:48;;;;;;;2.88;1.88;;;7.00;99.90;;;;;;5099748;28;20404;-85
2023/03/07 04:00:15;;;;;;;3.38;2.00;;;7.00;99.90;;;;;;5099587;28;20372;-84
2023/03/07 04:02:41;;;;;;;2.65;1.75;;;7.00;99.90;;;;;;5099702;28;20484;-84
2023/03/07 04:05:07;;;;;;;3.28;2.20;;;7.00;99.90;;;;;;5089714;28;20024;-85
2023/03/07 04:07:33;;;;;;;2.67;1.92;;;7.00;99.90;;;;;;5061327;28;20055;-85
2023/03/07 04:09:58;;;;;;;2.83;2.00;;;7.00;99.90;;;;;;5061608;28;20032;-84
2023/03/07 04:12:24;;;;;;;3.17;2.40;;;7.00;99.90;;;;;;5070053;28;20032;-85
2023/03/07 04:14:50;;;;;;;4.10;2.20;;;7.00;99.90;;;;;;5061508;28;20032;-85
2023/03/07 04:17:15;;;;;;;3.38;2.13;;;6.90;99.90;;;;;;5078668;28;20025;-85
2023/03/07 04:19:41;;;;;;;3.85;2.28;;;6.90;99.90;;;;;;5071072;28;20020;-85
2023/03/07 04:22:06;;;;;;;2.92;1.98;;;6.90;99.90;;;;;;5077233;28;20502;-82
2023/03/07 04:24:32;;;;;;;2.70;2.08;;;7.00;99.90;;;;;;5061089;28;20060;-83
2023/03/07 04:26:58;;;;;;;2.28;1.83;;;7.00;99.90;;;;;;5078985;28;20043;-83
2023/03/07 04:29:23;;;;;;;3.10;1.83;;;7.00;99.90;;;;;;5070658;28;20508;-84
2023/03/07 04:31:49;;;;;;;2.25;1.70;;;7.00;99.90;;;;;;5073136;28;20797;-85
2023/03/07 04:34:14;;;;;;;3.75;2.25;;;7.00;99.90;;;;;;5057613;28;20021;-85
2023/03/07 04:36:40;;;;;;;4.05;2.75;;;6.90;99.90;;;;;;5061197;28;20029;-85
2023/03/07 04:39:06;;;;;;;4.95;2.75;;;6.90;99.90;;;;;;5080104;28;20074;-86
2023/03/07 04:41:32;;;;;;;5.22;2.60;;;6.80;99.90;;;;;;5072793;28;20017;-86
2023/03/07 04:43:58;;;;;;;4.20;2.17;;;6.80;99.90;;;;;;5060302;28;20025;-86
2023/03/07 04:46:24;;;;;;;4.03;2.63;;;6.70;99.90;;;;;;5069626;28;20391;-86
2023/03/07 04:48:50;;;;;;;4.57;2.55;;;6.80;99.90;;;;;;5077266;28;20028;-85
2023/03/07 04:51:15;;;;;;;4.43;2.53;;;6.80;99.90;;;;;;5078663;28;20029;-86
2023/03/07 04:53:41;;;;;;;2.50;2.08;;;6.80;99.90;;;;;;5077902;28;20037;-84
2023/03/07 04:56:08;;;;;;;4.60;2.97;;;6.80;99.90;;;;;;5078162;28;20258;-84
2023/03/07 04:58:34;;;;;;;3.67;2.60;;;6.70;99.90;;;;;;5079616;28;20036;-84
2023/03/07 05:01:02;;;;;;;3.92;2.38;;;6.70;99.90;;;;;;5060516;28;20017;-82
2023/03/07 05:03:28;;;;;;;3.70;2.35;;;6.80;99.90;;;;;;5077949;28;20016;-80
2023/03/07 05:05:54;;;;;;;4.15;2.42;;;6.80;99.90;;;;;;5078162;28;20052;-81
2023/03/07 05:08:21;;;;;;;3.45;2.08;;;6.80;99.90;;;;;;5060395;28;20033;-80
2023/03/07 05:10:46;;;;;;;3.05;2.17;;;6.80;99.90;;;;;;5078006;28;20020;-81
2023/03/07 05:13:12;;;;;;;4.32;2.70;;;6.80;99.90;;;;;;5056438;28;20120;-81
2023/03/07 05:15:38;;;;;;;4.15;2.85;;;6.80;99.90;;;;;;5050355;28;20108;-82
2023/03/07 05:18:04;;;;;;;5.35;2.90;;;6.80;99.90;;;;;;5074812;28;20086;-82
2023/03/07 05:20:29;;;;;;;3.75;2.45;;;6.70;99.90;;;;;;5077276;28;20103;-82
2023/03/07 05:22:56;;;;;;;3.47;2.28;;;6.80;99.90;;;;;;5056558;28;20049;-83
2023/03/07 05:25:21;;;;;;;3.30;2.30;;;6.90;99.90;;;;;;5061642;28;20480;-82
2023/03/07 05:27:47;;;;;;;2.88;2.28;;;6.80;99.90;;;;;;5058133;28;20031;-84
2023/03/07 05:30:13;;;;;;;3.95;2.30;;;6.80;99.90;;;;;;5068125;28;20025;-86
2023/03/07 05:32:39;;;;;;;4.30;2.38;;;6.80;99.90;;;;;;5054321;28;20025;-86
2023/03/07 05:35:07;;;;;;;4.38;2.72;;;6.80;99.90;;;;;;5065053;28;20096;-86
2023/03/07 05:37:33;;;;;;;4.60;2.75;;;6.80;99.90;;;;;;5059537;28;20162;-85
2023/03/07 05:39:58;;;;;;;4.68;2.22;;;6.80;99.90;;;;;;5059977;28;20049;-85
2023/03/07 05:42:24;;;;;;;4.70;2.83;;;6.80;99.90;;;;;;5058575;28;20068;-83
2023/03/07 05:44:50;;;;;;;3.35;2.22;;;6.80;99.90;;;;;;5057175;28;20504;-83
2023/03/07 05:47:15;;;;;;;4.25;2.75;;;6.80;99.90;;;;;;5057117;28;20029;-83
2023/03/07 05:49:41;;;;;;;4.07;2.80;;;6.80;99.90;;;;;;5071348;28;20116;-83
2023/03/07 05:52:07;;;;;;;4.68;2.17;;;6.70;99.90;;;;;;5059232;28;20033;-83
2023/03/07 05:54:32;;;;;;;2.83;2.25;;;6.80;99.90;;;;;;5062902;28;20020;-84
2023/03/07 05:56:58;;;;;;;3.05;2.35;;;6.80;99.90;;;;;;5073972;28;20025;-83
2023/03/07 05:59:24;;;;;;;3.65;2.28;;;6.80;99.90;;;;;;5057151;28;20059;-83
2023/03/07 06:01:49;;;;;;;4.57;2.72;;;6.80;99.90;;;;;;5057270;28;20025;-85
2023/03/07 06:04:15;;;;;;;3.28;2.20;;;6.80;99.90;;;;;;5064471;28;20021;-86
2023/03/07 06:06:41;;;;;;;3.90;2.30;;;6.80;99.90;;;;;;5055785;28;20362;-86
2023/03/07 06:09:06;;;;;;;3.40;2.00;;;6.80;99.90;;;;;;5057164;28;20049;-86
2023/03/07 06:11:33;;;;;;;2.97;2.10;;;6.80;99.90;;;;;;5054628;28;20122;-86
2023/03/07 06:13:59;;;;;;;1.80;1.50;;;6.80;99.90;;;;;;5045914;28;20030;-84
2023/03/07 06:16:25;;;;;;;3.90;2.15;;;6.90;99.90;;;;;;5054123;28;20055;-84
2023/03/07 06:18:50;;;;;;;3.17;2.05;;;6.90;99.90;;;;;;5057184;28;20025;-84
2023/03/07 06:21:17;;;;;;;2.55;1.90;;;6.90;99.90;;;;;;5057467;28;20026;-84
2023/03/07 06:23:44;;;;;;;2.92;2.00;;;6.80;99.90;;;;;;5056028;28;20049;-82
2023/03/07 06:26:11;;;;;;;4.32;2.22;;;6.90;99.90;;;;;;5056289;28;20017;-81
2023/03/07 06:28:38;;;;;;;2.83;1.88;;;6.90;99.90;;;;;;5055719;28;20025;-81
2023/03/07 06:31:11;;;;;;;2.40;1.65;;;6.90;99.90;;;;;;5060923;28;20028;-82
2023/03/07 06:33:37;;;;;;;2.60;1.70;;;6.90;99.90;;;;;;5063932;28;20452;-82
2023/03/07 06:36:08;;;;;;;3.50;1.70;;;6.90;99.90;;;;;;5068018;28;20028;-82
2023/03/07 06:38:34;;;;;;;4.00;1.92;;;6.90;99.90;;;;;;5072811;28;20036;-84
2023/03/07 06:41:00;;;;;;;2.95;1.95;;;6.90;99.90;;;;;;5052759;28;20087;-83
2023/03/07 06:43:26;;;;;;;2.78;2.00;;;6.90;99.90;;;;;;5062874;28;20036;-83
2023/03/07 06:45:51;;;;;;;2.65;1.77;;;6.90;99.90;;;;;;5060439;28;20033;-83
2023/03/07 06:48:17;;;;;;;2.08;1.60;;;6.90;99.90;;;;;;5053863;28;20075;-84
2023/03/07 06:50:43;;;;;;;3.53;1.77;;;6.90;99.90;;;;;;5054914;28;20517;-82
2023/03/07 06:53:09;;;;;;;3.45;2.15;;;7.00;99.90;;;;;;5058002;28;20025;-82
2023/03/07 06:55:35;;;;;;;2.88;1.80;;;7.00;99.90;;;;;;5059024;28;20025;-82
2023/03/07 06:58:00;;;;;;;3.20;2.00;;;7.00;99.90;;;;;;5060186;28;20024;-82
2023/03/07 07:00:30;;;;;;;3.67;2.15;;;7.00;99.90;;;;;;5060044;28;20497;-81
2023/03/07 07:02:55;;;;;;;3.22;2.08;;;7.00;99.90;;;;;;5059966;28;20029;-84
2023/03/07 07:05:21;;;;;;;2.72;1.52;;;7.00;99.90;;;;;;5059705;28;20482;-84
2023/03/07 07:07:47;;;;;;;2.45;1.77;;;7.00;99.90;;;;;;5060247;28;20115;-83
2023/03/07 07:10:12;;;;;;;3.45;1.90;;;7.00;99.90;;;;;;5057717;28;20017;-83
2023/03/07 07:12:38;;;;;;;3.38;2.03;;;7.00;99.90;;;;;;5062465;28;20062;-83
2023/03/07 07:15:05;;;;;;;2.70;1.60;;;7.10;99.90;;;;;;5080245;28;20024;-84
2023/03/07 07:17:34;;;;;;;3.35;2.00;;;7.10;99.90;;;;;;5075292;28;20033;-86
2023/03/07 07:20:00;;;;;;;3.45;2.00;;;7.00;99.90;;;;;;5059721;28;20444;-88
2023/03/07 07:22:26;;;;;;;5.10;2.03;;;7.00;99.90;;;;;;5064121;28;20049;-86
2023/03/07 07:24:52;;;;;;;3.00;1.90;;;7.00;99.90;;;;;;5074039;28;20028;-85
2023/03/07 07:27:18;;;;;;;3.00;2.00;;;7.00;99.90;;;;;;5100468;28;20034;-85
2023/03/07 07:29:44;;;;;;;4.03;2.00;;;7.00;99.90;;;;;;5087674;28;20029;-85
2023/03/07 07:32:09;;;;;;;3.45;1.52;;;7.00;99.90;;;;;;5069453;28;20057;-81
2023/03/07 07:37:57;;;;;;;2.70;1.60;;;7.00;99.90;;;;;;5095641;28;20019;-83
2023/03/07 07:40:23;;;;;;;3.10;1.55;;;7.10;99.90;;;;;;5100003;28;20028;-83
2023/03/07 07:42:54;;;;;;;3.58;2.03;;;7.10;99.90;;;;;;5085659;28;20072;-83
2023/03/07 07:45:21;;;;;;;2.42;1.80;;;7.10;99.90;;;;;;5078735;28;20044;-85
2023/03/07 07:47:53;;;;;;;2.83;1.98;;;7.10;99.90;;;;;;5090215;28;20158;-85
2023/03/07 07:50:23;;;;;;;2.88;1.70;;;7.10;99.90;;;;;;5090636;28;20032;-85
2023/03/07 07:52:48;;;;;;;3.03;1.88;;;7.20;99.90;;;;;;5063466;28;20384;-85
2023/03/07 07:55:14;;;;;;;3.53;1.88;;;7.20;99.90;;;;;;5065107;28;20032;-85
2023/03/07 07:57:42;;;;;;;2.22;1.52;;;7.10;99.90;;;;;;5060311;28;20107;-86
2023/03/07 08:00:20;;;;;;;3.35;2.28;;;7.20;99.90;;;;;;5076793;28;20071;-85
2023/03/07 08:02:50;;;;;;;2.72;1.75;;;7.20;99.90;;;;;;5072750;28;20051;-85
2023/03/07 08:05:20;;;;;;;3.25;1.90;;;7.30;99.90;;;;;;5064450;28;20020;-84
2023/03/07 08:07:46;;;;;;;4.03;1.92;;;7.30;99.90;;;;;;5074957;28;20167;-84
2023/03/07 08:10:46;;;;;;;;;;;;;;;;;;;;;
2023/03/07 08:13:35;;;;;;;4.63;2.67;;;7.30;99.90;;;;;;5072664;28;20135;-84
2023/03/07 08:16:23;;;;;;;3.60;1.83;;;7.30;99.90;;;;;;5069412;28;20090;-84
2023/03/07 08:22:23;;;;;;;3.28;2.00;;;7.30;99.90;;;;;;5060556;28;20040;-85
2023/03/07 08:36:29;;;;;;;3.03;2.10;;;7.50;99.90;;;;;;4807680;29;20044;-83
2023/03/07 08:38:55;;;;;;;3.15;1.67;;;7.60;99.90;;;;;;4948487;28;20397;-83
2023/03/07 08:41:33;;;;;;;3.03;1.63;;;7.60;99.90;;;;;;5075926;28;20404;-83
2023/03/07 08:43:59;;;;;;;3.10;1.60;;;7.60;99.90;;;;;;5078936;28;20024;-83
2023/03/07 08:46:31;;;;;;;2.78;2.03;;;7.70;99.90;;;;;;5078270;28;20033;-84
2023/03/07 08:48:56;;;;;;;3.75;2.08;;;7.70;99.90;;;;;;5077877;28;20047;-77
2023/03/07 08:51:23;;;;;;;4.05;2.53;;;7.70;99.80;;;;;;5078041;28;20020;-76
2023/03/07 08:53:48;;;;;;;5.25;2.80;;;7.70;99.90;;;;;;5058854;28;20024;-81
2023/03/07 08:56:16;;;;;;;4.13;2.60;;;7.80;99.60;;;;;;5079228;28;20077;-81
2023/03/07 08:58:42;;;;;;;3.60;2.17;;;7.80;99.90;;;;;;5075344;28;20023;-81
2023/03/07 09:01:11;;;;;;;4.07;2.42;;;7.80;99.90;;;;;;5071909;28;20461;-83
2023/03/07 09:03:37;;;;;;;3.78;2.30;;;7.90;99.90;;;;;;5080061;28;20025;-83
2023/03/07 09:06:04;;;;;;;3.75;2.47;;;7.90;99.20;;;;;;5089835;28;20500;-84
2023/03/07 09:08:32;;;;;;;3.70;2.40;;;8.00;99.40;;;;;;5077963;28;20046;-85
2023/03/07 09:10:59;;;;;;;3.45;2.40;;;8.00;99.40;;;;;;5077492;28;20108;-79
2023/03/07 09:13:25;;;;;;;3.40;2.40;;;8.00;99.90;;;;;;5059703;28;20024;-81
2023/03/07 09:15:51;;;;;;;4.30;2.72;;;8.10;99.60;;;;;;5077968;28;20073;-80
2023/03/07 09:18:17;;;;;;;5.00;2.88;;;8.20;99.90;;;;;;5053629;28;20492;-79
2023/03/07 09:20:43;;;;;;;3.70;2.53;;;8.20;99.20;;;;;;5077863;28;20501;-77
2023/03/07 09:23:09;;;;;;;4.45;2.10;;;8.20;99.30;;;;;;5056396;28;20517;-79
2023/03/07 09:25:36;;;;;;;3.55;2.25;;;8.30;99.40;;;;;;5056943;28;20045;-76
2023/03/07 09:28:01;;;;;;;3.35;2.38;;;8.40;99.30;;;;;;5054631;28;20111;-75
2023/03/07 09:30:27;;;;;;;4.28;2.40;;;8.40;99.00;;;;;;5057079;28;20098;-73
2023/03/07 09:32:53;;;;;;;3.78;2.03;;;8.40;98.80;;;;;;5056105;28;20028;-73
2023/03/07 09:35:20;;;;;;;3.30;2.03;;;8.50;99.00;;;;;;5075973;28;20919;-74
2023/03/07 09:37:45;;;;;;;3.28;2.13;;;8.50;98.90;;;;;;5049553;28;20040;-74
2023/03/07 09:40:22;;;;;;;3.22;2.30;;;8.60;99.00;;;;;;5048157;28;20037;-72
2023/03/07 09:43:05;;;;;;;3.00;1.90;;;8.60;98.50;;;;;;5053182;28;20076;-75
2023/03/07 09:46:01;;;;;;;2.35;1.75;;;8.60;99.10;;;;;;5075467;28;20024;-73
2023/03/07 09:48:57;;;;;;;4.15;2.25;;;8.70;98.80;;;;;;5048849;28;20088;-75
2023/03/07 09:51:28;;;;;;;3.78;2.40;;;8.60;98.60;;;;;;5072191;28;20025;-73
2023/03/07 09:53:58;;;;;;;3.95;2.35;;;8.60;97.60;;;;;;5056220;28;20028;-74
2023/03/07 09:56:34;;;;;;;3.55;2.20;;;8.50;98.10;;;;;;5055231;28;20040;-74
2023/03/07 09:59:21;;;;;;;3.78;2.17;;;8.40;97.20;;;;;;5054777;28;20055;-72
2023/03/07 10:01:49;;;;;;;3.25;2.20;;;8.40;97.30;;;;;;5049802;28;20048;-72
2023/03/07 10:04:21;;;;;;;2.65;1.88;;;8.30;98.00;;;;;;5054258;28;20039;-74
2023/03/07 10:06:56;;;;;;;3.33;1.92;;;8.40;98.70;;;;;;5055306;28;20029;-74
2023/03/07 10:09:23;;;;;;;3.60;2.38;;;8.50;99.00;;;;;;5061918;28;20060;-74
2023/03/07 10:12:23;;;;;;;4.70;2.10;;;8.70;98.80;;;;;;5076034;28;20095;-72
2023/03/07 10:15:21;;;;;;;3.55;1.98;;;8.80;98.60;;;;;;5076367;28;20033;-73
2023/03/07 10:17:56;;;;;;;2.47;1.58;;;8.90;97.80;;;;;;5061702;28;20025;-72
2023/03/07 10:20:21;;;;;;;3.83;1.92;;;8.90;97.00;;;;;;5073609;28;20443;-72
2023/03/07 10:22:56;;;;;;;4.15;2.50;;;9.00;98.00;;;;;;5061523;28;20036;-73
2023/03/07 10:25:31;;;;;;;3.55;2.10;;;9.10;97.60;;;;;;5058919;28;20035;-72
2023/03/07 10:28:17;;;;;;;4.07;2.10;;;9.30;96.60;;;;;;5065643;28;20045;-72
2023/03/07 10:30:44;;;;;;;3.33;2.05;;;9.30;97.40;;;;;;5050836;28;20039;-72
2023/03/07 10:33:17;;;;;;;2.72;1.90;;;9.40;95.70;;;;;;5071819;28;20032;-72
2023/03/07 10:35:56;;;;;;;2.78;1.95;;;9.50;96.00;;;;;;5076523;28;20032;-71
2023/03/07 10:38:41;;;;;;;3.95;2.30;;;9.60;95.70;;;;;;5080873;28;20085;-73
2023/03/07 10:41:14;;;;;;;4.15;2.05;;;9.60;96.20;;;;;;5078276;28;20455;-72
2023/03/07 10:43:40;;;;;;;4.00;2.00;;;9.60;93.60;;;;;;5075041;28;20032;-70
2023/03/07 10:46:14;;;;;;;4.05;2.15;;;9.60;92.70;;;;;;5088535;28;20039;-72
2023/03/07 10:48:43;;;;;;;3.97;2.40;;;9.60;93.60;;;;;;5076026;28;20103;-71
2023/03/07 10:51:36;;;;;;;2.80;1.90;;;9.60;92.90;;;;;;5075581;28;20028;-72
2023/03/07 10:54:09;;;;;;;2.25;1.60;;;9.60;93.40;;;;;;5065641;28;20392;-72
2023/03/07 10:56:35;;;;;;;2.80;1.77;;;9.70;93.00;;;;;;5072035;28;20465;-70
2023/03/07 10:59:08;;;;;;;4.28;2.13;;;9.90;94.30;;;;;;5074520;28;20059;-69
2023/03/07 11:01:36;;;;;;;2.45;1.85;;;9.90;93.00;;;;;;5072679;28;20089;-70
2023/03/07 11:04:18;;;;;;;3.50;1.98;;;9.90;91.20;;;;;;5065550;28;20044;-70
2023/03/07 11:06:54;;;;;;;3.08;1.67;;;9.80;90.70;;;;;;5070340;28;20104;-70
2023/03/07 11:09:25;;;;;;;3.78;1.77;;;9.90;90.90;;;;;;5057479;28;20033;-68
2023/03/07 11:11:55;;;;;;;2.55;1.80;;;9.90;91.00;;;;;;5055425;28;20090;-68
2023/03/07 11:14:22;;;;;;;2.85;1.70;;;9.90;90.20;;;;;;5056665;28;20215;-75
2023/03/07 11:16:58;;;;;;;4.43;1.92;;;9.80;88.80;;;;;;5071864;28;20032;-72
2023/03/07 11:19:35;;;;;;;2.75;1.77;;;9.90;90.90;;;;;;5071958;28;20031;-71
2023/03/07 11:22:05;;;;;;;2.17;1.70;;;9.90;89.20;;;;;;5073343;28;20083;-72
2023/03/07 11:24:37;;;;;;;3.00;1.92;;;10.00;91.30;;;;;;5057281;28;20551;-76
2023/03/07 11:27:03;;;;;;;3.73;2.37;;;10.00;90.10;;;;;;5069540;28;20107;-74
2023/03/07 11:29:32;;;;;;;3.55;2.00;;;10.00;88.40;;;;;;5068487;28;20067;-73
2023/03/07 11:32:20;;;;;;;3.55;2.33;;;10.10;89.30;;;;;;5085204;28;20024;-74
2023/03/07 11:34:55;;;;;;;3.65;2.50;;;10.10;88.90;;;;;;5084004;28;20392;-73
2023/03/07 11:37:42;;;;;;;3.30;2.28;;;10.10;88.00;;;;;;5080180;28;20040;-72
2023/03/07 11:40:21;;;;;;;3.28;2.20;;;10.00;88.30;;;;;;5079212;28;20029;-74
2023/03/07 11:42:53;;;;;;;2.88;2.00;;;10.10;89.90;;;;;;5081614;28;20112;-72
2023/03/07 11:45:39;;;;;;;4.32;2.22;;;10.20;90.20;;;;;;5073468;28;20024;-74
2023/03/07 11:48:55;;;;;;;3.50;2.30;;;10.40;90.30;;;;;;5079949;28;20031;-74
2023/03/07 11:51:42;;;;;;;5.25;2.40;;;10.40;90.00;;;;;;5036608;28;20025;-72
2023/03/07 11:54:27;;;;;;;6.13;2.45;;;10.40;89.90;;;;;;5049265;28;20025;-73
2023/03/07 11:56:58;;;;;;;3.85;2.53;;;10.30;89.30;;;;;;5081530;28;20511;-73
2023/03/07 11:59:27;;;;;;;3.72;2.13;;;10.30;88.50;;;;;;5081038;28;20120;-69
2023/03/07 12:01:59;;;;;;;3.70;2.70;;;10.30;88.60;;;;;;5082957;28;20016;-77
2023/03/07 12:04:35;;;;;;;3.70;2.30;;;10.40;90.30;;;;;;5060789;28;20166;-75
2023/03/07 12:07:43;;;;;;;4.25;2.63;;;10.50;90.80;;;;;;5080555;28;20013;-74
2023/03/07 12:10:22;;;;;;;4.32;2.55;;;10.50;89.40;;;;;;5061727;28;20057;-73
2023/03/07 12:13:24;;;;;;;4.07;2.65;;;10.60;89.50;;;;;;5057693;28;20044;-73
2023/03/07 12:15:58;;;;;;;5.53;2.92;;;10.70;91.30;;;;;;5073807;28;20032;-72
2023/03/07 12:18:42;;;;;;;4.72;3.05;;;10.70;89.80;;;;;;5073815;28;20020;-74
2023/03/07 12:21:14;;;;;;;6.55;2.70;;;10.60;89.30;;;;;;5057574;28;20051;-72
2023/03/07 12:23:51;;;;;;;5.20;2.85;;;10.60;89.00;;;;;;5084537;28;20048;-76
2023/03/07 12:26:31;;;;;;;3.83;2.55;;;10.60;88.80;;;;;;5098933;28;20074;-77
2023/03/07 12:29:37;;;;;;;3.45;2.65;;;10.60;90.20;;;;;;5090608;28;20103;-73
2023/03/07 12:32:14;;;;;;;5.07;2.75;;;10.60;90.70;;;;;;5068138;28;20051;-79
2023/03/07 12:34:50;;;;;;;3.92;2.42;;;10.70;90.80;;;;;;5083774;28;20098;-78
2023/03/07 12:37:22;;;;;;;3.67;2.67;;;10.70;91.30;;;;;;5087278;28;20111;-73
2023/03/07 12:39:50;;;;;;;4.03;2.72;;;10.70;90.30;;;;;;5098330;28;20084;-70
2023/03/07 12:42:28;;;;;;;4.20;2.95;;;10.70;90.10;;;;;;5086749;28;20027;-72
2023/03/07 12:45:11;;;;;;;4.13;2.60;;;10.60;91.00;;;;;;5078284;28;20052;-71
2023/03/07 12:47:55;;;;;;;;;;;10.50;90.70;;;;;;5049832;28;20078;-70
2023/03/07 12:50:40;;;;;;;2.70;1.75;;;10.50;91.50;;;;;;5059948;28;20360;-69
2023/03/07 12:53:21;;;;;;;4.15;2.53;;;10.60;91.60;;;;;;5066355;28;20105;-69
2023/03/07 12:56:10;;;;;;;3.20;2.30;;;10.60;91.50;;;;;;5098272;28;20453;-71
2023/03/07 12:58:48;;;;;;;3.72;2.00;;;10.60;92.60;;;;;;5069279;28;20111;-71
2023/03/07 13:01:24;;;;;;;3.63;2.70;;;10.70;92.40;;;;;;5076692;28;20024;-71
2023/03/07 13:03:57;;;;;;;4.03;2.67;;;10.60;92.00;;;;;;5055134;28;20044;-72
2023/03/07 13:06:24;;;;;;;3.05;1.92;;;10.50;91.90;;;;;;5081795;28;20099;-70
2023/03/07 13:08:53;;;;;;;2.80;2.15;;;10.50;92.50;;;;;;5059707;28;20029;-70
2023/03/07 13:11:24;;;;;;;3.78;2.58;;;10.40;92.20;;;;;;5077253;28;20024;-70
2023/03/07 13:13:50;;;;;;;4.50;2.80;;;10.30;92.20;;;;;;5076121;28;20024;-70
2023/03/07 13:16:44;;;;;;;3.85;2.20;;;10.30;93.00;;;;;;5075713;28;20847;-69
2023/03/07 13:19:31;;;;;;;4.57;2.63;;;10.40;93.90;;;;;;5080557;28;20408;-69
2023/03/07 13:21:57;;;;;;;3.58;2.10;;;10.50;93.60;;;;;;5079608;28;20047;-69
2023/03/07 13:24:38;;;;;;;4.38;2.38;;;10.60;93.60;;;;;;5076991;28;20040;-69
2023/03/07 13:27:21;;;;;;;2.97;2.28;;;10.60;93.80;;;;;;5058074;28;20064;-69
2023/03/07 13:30:06;;;;;;;;;;;10.70;93.80;;;;;;5070782;28;20115;-69
2023/03/07 13:32:50;;;;;;;3.30;2.10;;;10.80;93.50;;;;;;5070814;28;19908;-70